Commit Graph

  • dbdb0bd379 Added ui_scanner load button for any .txt frequency file Rascafr 2020-09-11 21:11:42 +02:00
  • fcdbedca98 Bad emplace_back code position fix Rascafr 2020-09-11 20:46:41 +02:00
  • ccb3937e37 Hide .dot tmp / system files from list in frequency manager module Rascafr 2020-09-11 20:34:15 +02:00
  • c4052064a9 Merge pull request #182 from rascafr/file-manager-hide-tmp-dot-files Erwin Ried 2020-09-11 15:02:16 +02:00
  • dd5e63abd3 Hide empty & .dot tmp / system files in freq manager Rascafr 2020-09-11 12:25:10 +02:00
  • 5cbbf62c5f Removed drawRAW. - BMP files can be loaded directly now, so it can be removed. dqs105 2020-08-29 10:53:26 +08:00
  • 8a4e6492d9 More Improvements on SoundBoard Optimizing and fixing ITAxReal 2020-08-28 23:59:33 +03:00
  • 668afccc28 > But it's a sound board not a music player....  Maybe make it say sounds instead of songs? Paging was a great idea however. ITAxReal 2020-08-28 22:22:39 +03:00
  • e466c14c88 Improved SoundBoard app: * No device freeze when you try to close app while it's transmitting * Bypassed 100 .wav files limit by implementing paging functionality * Removed useless progressbar and implemented page info line instead ITAxReal 2020-08-28 21:47:56 +03:00
  • 80f074b82f Added BMP file support. - Now can load splash.bmp! dqs105 2020-08-28 12:23:52 +08:00
  • 7116ca3f91 Fixed typo. dqs105 2020-08-28 00:27:52 +08:00
  • 8463cba4b6 Splash generator. (Modified from the one generates world_map.bin) dqs105 2020-08-28 00:22:36 +08:00
  • 78f2e417d6 Fixed RGB565 mode & clean up dqs105 2020-08-28 00:21:09 +08:00
  • ac12bf5f50 modify file extension from data to bin. dqs105 2020-08-27 23:16:05 +08:00
  • 8edaa1e51e Added new custom splash. - Custom splash now can be loaded from SD card. dqs105 2020-08-27 23:07:48 +08:00
  • a2b28c097c Menu changes euquiq 2020-08-26 10:48:09 -03:00
  • 7fae33eb49 Remove hard-coded rf_amp on. dqs105 2020-08-26 15:39:17 +08:00
  • 3425ca8d54 Update generate_world_map.bin.py Erwin Ried 2020-08-26 01:40:51 +02:00
  • dbf8d2e130 Merge pull request #167 from euquiq/fix-backlight-timer-bug Erwin Ried 2020-08-25 10:11:31 +02:00
  • a445bfa444 fix-portapack-backlight-timer-bug euquiq 2020-08-24 18:12:46 -03:00
  • 13abb620f6 Radiosonde-vaisala-add-temp-humidity euquiq 2020-08-24 17:31:27 -03:00
  • 8833b2fce5 Restored radio.cpp dqs105 2020-08-24 11:21:30 +08:00
  • 94eea961b5 Merge Button and TxButton & Minor bug fix dqs105 2020-08-24 11:18:57 +08:00
  • 7d6fb56c7e Minor bug fix - Key press & touch isolation dqs105 2020-08-24 11:09:10 +08:00
  • 911eb36210 Merged TxButton and Button & minor bug fix dqs105 2020-08-24 11:02:42 +08:00
  • af0d9d8b68 Merge dqs105/mic_tx_rx_dev dqs105 2020-08-24 02:17:36 +08:00
  • a09db01821 Merge dqs105/mic_tx_rx_dev_ui dqs105 2020-08-24 01:59:22 +08:00
  • d7568b820d UI tweak & new PTT button dqs105 2020-08-24 01:53:34 +08:00
  • 0f88efc44e Tx led fix & UI tweak & Rx frequency dqs105 2020-08-23 17:41:31 +08:00
  • 76f6ab78c2 Merge dqs105/mic_rx_gain dqs105 2020-08-22 15:03:53 +08:00
  • 4197b5c083 Added RX gain control & UI modification dqs105 2020-08-22 14:57:55 +08:00
  • 888225fb55 Merge pull request #162 from euquiq/fix-freq-format-function Erwin Ried 2020-08-21 20:48:43 +02:00
  • b41074fbe3 Revert into use of spaces for padding freq euquiq 2020-08-21 15:05:37 -03:00
  • 2f54c11fea Added TX Gain control & code simplification dqs105 2020-08-21 23:18:53 +08:00
  • 0852bf89f0 Merge pull request #149 from mcules/v1.2 Erwin Ried 2020-08-20 21:53:04 +02:00
  • f1a2155e87 Merge pull request #157 from eried/gcc9.3-assert-redefinition Erwin Ried 2020-08-20 21:45:11 +02:00
  • af8382eeb0 Merge pull request #145 from strijar/audio-cw Erwin Ried 2020-08-20 20:57:01 +02:00
  • 0993f36157 Merge pull request #155 from euquiq/add-crc-check-and-selector-on-radiosondes Erwin Ried 2020-08-20 20:56:21 +02:00
  • 629f911b91 Merge pull request #150 from strijar/wide-waterfall Erwin Ried 2020-08-20 20:54:45 +02:00
  • e76a464f7e Radiosonde-CRC-checkbox euquiq 2020-08-20 15:22:11 -03:00
  • 9186031e95 Update stream_output.cpp Erwin Ried 2020-08-19 22:52:39 +02:00
  • 1c9ccbc247 Rename m4txevent::assert and m0apptxevent::assert (adding "_event") eried 2020-08-19 09:43:04 +02:00
  • 4bc360d652 Waterfall in AM/NFM Audio mode extended to 48kHz Belousov Oleg 2020-08-19 01:04:14 +03:00
  • 99b8fb9b53 Moved german frequencies Dennis Eisold 2020-08-18 22:38:46 +02:00
  • a73aaaa433 Delete PMR.TXT Dennis Eisold 2020-08-18 22:13:45 +02:00
  • 788bf03104 Update FREENET.TXT Dennis Eisold 2020-08-18 22:13:17 +02:00
  • 5d21e1d09c Added all CB Bands Dennis Eisold 2020-08-18 22:13:04 +02:00
  • b3d34cd3c7 Create PMR.TXT Dennis Eisold 2020-08-18 21:30:54 +02:00
  • 8cb5ddb9ce Create FREENET.TXT Dennis Eisold 2020-08-18 21:26:15 +02:00
  • 33f6edc08a Update CB.TXT Dennis Eisold 2020-08-18 20:17:27 +02:00
  • 3559e37a76 Audio FIR filter for CW Белоусов Олег 2020-08-17 16:07:06 +03:00
  • c626d83c3b Merge pull request #139 from eried/v1.2 Erwin Ried 2020-08-15 20:44:16 +02:00
  • b7ae9d575b Merge branch 'v1.2' of https://github.com/eried/portapack-mayhem into v1.2 Erwin Ried 2020-08-15 16:01:33 +02:00
  • 303d9c8a9d Version bump Erwin Ried 2020-08-15 16:01:15 +02:00
  • d79f3ce028 Merge pull request #137 from eried/debug-temperature Erwin Ried 2020-08-15 15:58:36 +02:00
  • c56d84d037 Merge pull request #136 from eried/new-scanner-ui Erwin Ried 2020-08-15 15:56:21 +02:00
  • 646b7b564e Merge pull request #110 from strijar/audio-spectrum Erwin Ried 2020-08-15 15:54:08 +02:00
  • cc2046b607 Merge pull request #119 from euquiq/MIC_TX_RX_with_volume_and_squelch Erwin Ried 2020-08-15 15:53:48 +02:00
  • 1fc9a1c6e8 Merge pull request #120 from eried/WAV-viewer-bug-when-wav-file-format-is-wrong Erwin Ried 2020-08-15 15:53:27 +02:00
  • 4b02a1c410 Merge pull request #129 from jwetzell/add-heading-to-geomap Erwin Ried 2020-08-15 15:53:05 +02:00
  • 5a3da3bd6a Merge branch 'v1.2' into add-heading-to-geomap Erwin Ried 2020-08-15 15:52:53 +02:00
  • 40785e8094 Merge pull request #135 from euquiq/radiosonde-vaisala-rs41-decoding Erwin Ried 2020-08-15 15:51:10 +02:00
  • f519168602 Merge branch 'new-footer' into v1.2 Erwin Ried 2020-08-15 15:48:49 +02:00
  • ccef06c088 Margin for footer elements Erwin Ried 2020-08-15 15:47:23 +02:00
  • 8251cf7dbb Hide the seconds at the beginning Erwin Ried 2020-08-15 15:46:53 +02:00
  • 004fddf4de Skip splash when pressing titlebar, if enabled Erwin Ried 2020-08-15 03:20:55 +02:00
  • 7b19c0a35f Update ui_navigation.cpp euquiq 2020-08-14 20:11:24 -03:00
  • 27a549dac7 allow printing tag even without a valid heading jwetzell 2020-08-14 15:46:45 -05:00
  • c7b0fbc359 Radiosonde-app-Vaisala-rs41-decoding euquiq 2020-08-14 15:51:12 -03:00
  • 6eabd9f1bc Update README.md Erwin Ried 2020-08-13 23:17:25 +02:00
  • c522d3d8e4 Update README.md Erwin Ried 2020-08-13 23:11:36 +02:00
  • f6437adc60 Reorganixe ADSBDetailsView jwetzell 2020-08-11 11:26:54 -05:00
  • 13ba70f6c5 Fix negative altitude on DetailsView jwetzell 2020-08-11 11:26:36 -05:00
  • bbae5047d1 Fix ADSB heading math and add heading to ADSB log jwetzell 2020-08-10 22:55:20 -05:00
  • 24d43515cd Update README.md Erwin Ried 2020-08-10 14:35:30 +02:00
  • f6ad116eb8 Update README.md Erwin Ried 2020-08-10 14:33:49 +02:00
  • ba6c102a1a Update README.md Erwin Ried 2020-08-10 14:17:52 +02:00
  • 871be0199a In some scenarios, the new line does not work if is not called thru the write function Erwin Ried 2020-08-08 23:08:54 +02:00
  • c7082455c1 Super simple about Erwin Ried 2020-08-08 23:06:53 +02:00
  • fcbb26051b ACARS is not implemented Erwin Ried 2020-08-08 15:09:12 +02:00
  • 4ce44b84f3 Merge pull request #122 from klockee/new-main-menu-footer Erwin Ried 2020-08-08 11:43:45 +02:00
  • 90d2dbb49c More cleanup klockee 2020-08-08 04:48:29 -04:00
  • b300cc258e Cleaned up and tweaked klockee 2020-08-08 04:24:57 -04:00
  • b49ad91d24 Update ui_view_wav.cpp Erwin Ried 2020-08-07 22:20:54 +02:00
  • 6d131ccfd4 sorry, little detail euquiq 2020-08-07 16:35:06 -03:00
  • d50ea3cc50 fixed a bug, and some fine-tuning euquiq 2020-08-07 16:33:17 -03:00
  • 8edf4da511 Update README.md Erwin Ried 2020-08-07 12:53:26 +02:00
  • 72f3eea131 MIC TX Now includes RX with Volume and Squelch euquiq 2020-08-07 00:19:37 -03:00
  • 9c9021f63b Added new toolbar in main menu klockee 2020-08-05 01:03:51 -04:00
  • 62821a79e5 Merge pull request #116 from euquiq/fix-filemanager-rename-placing-file-on-root Erwin Ried 2020-08-04 19:45:45 +02:00
  • bb264dcf57 fixes file renaming on subdir euquiq 2020-08-04 14:24:16 -03:00
  • 41cecc88a1 Update README.md Erwin Ried 2020-08-04 00:12:51 +02:00
  • 17057a5e42 Update README.md Erwin Ried 2020-08-03 23:44:30 +02:00
  • bf2a04ab57 Fix title in splash screen klockee 2020-08-03 05:48:26 -04:00
  • a982ee029e Merge pull request #1 from eried/master klockee 2020-08-03 00:11:38 -04:00
  • 00a8d22c5b Merge pull request #105 from euquiq/new-ui-scanner-version Erwin Ried 2020-08-03 00:36:28 +02:00
  • e7de39d130 Merge pull request #94 from euquiq/fix-fileman-freeze-no-or-empty-sd Erwin Ried 2020-08-03 00:35:47 +02:00
  • 93f752d86f Merge pull request #108 from euquiq/increase-width-fine-tune-cursor-on-spectrum-waterfall Erwin Ried 2020-08-02 17:25:52 +02:00
  • 4eb3979ace Merge pull request #112 from klockee/interactive_titlebar Erwin Ried 2020-08-02 17:25:20 +02:00
  • 246e628df8 Added interactive titlebar! BuildTools 2020-08-01 21:55:09 -04:00